sensor_id;sensor_type;location;lat;lon;timestamp;P1;durP1;ratioP1;P2;durP2;ratioP2
34405;SDS011;20658;45.630;8.886;2023-03-26T00:02:37;6.60;;;1.90;;
34405;SDS011;20658;45.630;8.886;2023-03-26T00:05:08;5.20;;;1.75;;
34405;SDS011;20658;45.630;8.886;2023-03-26T00:07:39;2.75;;;1.35;;
34405;SDS011;20658;45.630;8.886;2023-03-26T00:10:13;4.07;;;1.70;;
34405;SDS011;20658;45.630;8.886;2023-03-26T00:12:46;5.75;;;1.80;;
34405;SDS011;20658;45.630;8.886;2023-03-26T00:15:14;5.97;;;1.52;;
34405;SDS011;20658;45.630;8.886;2023-03-26T00:17:48;4.05;;;1.60;;
34405;SDS011;20658;45.630;8.886;2023-03-26T00:20:22;4.45;;;1.42;;
34405;SDS011;20658;45.630;8.886;2023-03-26T00:22:57;2.70;;;1.15;;
34405;SDS011;20658;45.630;8.886;2023-03-26T00:25:32;7.45;;;1.30;;
34405;SDS011;20658;45.630;8.886;2023-03-26T00:28:08;7.20;;;1.60;;
34405;SDS011;20658;45.630;8.886;2023-03-26T00:30:37;2.75;;;1.08;;
34405;SDS011;20658;45.630;8.886;2023-03-26T00:33:12;4.53;;;1.52;;
34405;SDS011;20658;45.630;8.886;2023-03-26T00:35:44;3.35;;;1.65;;
34405;SDS011;20658;45.630;8.886;2023-03-26T00:38:13;5.45;;;1.45;;
34405;SDS011;20658;45.630;8.886;2023-03-26T00:40:46;1.85;;;1.15;;
34405;SDS011;20658;45.630;8.886;2023-03-26T00:43:21;3.85;;;1.20;;
34405;SDS011;20658;45.630;8.886;2023-03-26T00:45:56;1.88;;;0.98;;
34405;SDS011;20658;45.630;8.886;2023-03-26T00:48:25;3.28;;;1.15;;
34405;SDS011;20658;45.630;8.886;2023-03-26T00:51:01;3.63;;;1.20;;
34405;SDS011;20658;45.630;8.886;2023-03-26T00:53:35;3.42;;;1.05;;
34405;SDS011;20658;45.630;8.886;2023-03-26T00:56:09;1.38;;;0.65;;
34405;SDS011;20658;45.630;8.886;2023-03-26T00:58:42;6.95;;;2.40;;
34405;SDS011;20658;45.630;8.886;2023-03-26T01:01:18;3.05;;;1.30;;
34405;SDS011;20658;45.630;8.886;2023-03-26T01:04:16;3.00;;;1.00;;
34405;SDS011;20658;45.630;8.886;2023-03-26T01:06:59;6.20;;;1.15;;
34405;SDS011;20658;45.630;8.886;2023-03-26T01:09:31;3.63;;;1.33;;
34405;SDS011;20658;45.630;8.886;2023-03-26T01:12:03;3.47;;;1.33;;
34405;SDS011;20658;45.630;8.886;2023-03-26T01:14:35;7.07;;;1.65;;
34405;SDS011;20658;45.630;8.886;2023-03-26T01:17:09;2.70;;;0.98;;
34405;SDS011;20658;45.630;8.886;2023-03-26T01:19:46;4.93;;;1.02;;
34405;SDS011;20658;45.630;8.886;2023-03-26T01:22:22;2.15;;;0.95;;
34405;SDS011;20658;45.630;8.886;2023-03-26T01:24:59;4.00;;;0.85;;
34405;SDS011;20658;45.630;8.886;2023-03-26T01:27:33;2.83;;;0.85;;
34405;SDS011;20658;45.630;8.886;2023-03-26T01:30:12;3.17;;;0.95;;
34405;SDS011;20658;45.630;8.886;2023-03-26T01:32:53;1.85;;;0.75;;
34405;SDS011;20658;45.630;8.886;2023-03-26T01:35:36;9.93;;;1.25;;
34405;SDS011;20658;45.630;8.886;2023-03-26T01:38:21;3.92;;;0.95;;
34405;SDS011;20658;45.630;8.886;2023-03-26T01:40:59;6.15;;;0.93;;
34405;SDS011;20658;45.630;8.886;2023-03-26T01:43:35;1.95;;;0.88;;
34405;SDS011;20658;45.630;8.886;2023-03-26T01:46:16;1.73;;;0.93;;
34405;SDS011;20658;45.630;8.886;2023-03-26T01:48:51;3.13;;;0.90;;
34405;SDS011;20658;45.630;8.886;2023-03-26T01:51:26;1.98;;;0.70;;
34405;SDS011;20658;45.630;8.886;2023-03-26T01:54:03;4.53;;;0.85;;
34405;SDS011;20658;45.630;8.886;2023-03-26T01:56:43;1.40;;;0.82;;
34405;SDS011;20658;45.630;8.886;2023-03-26T01:59:36;4.40;;;1.00;;
34405;SDS011;20658;45.630;8.886;2023-03-26T02:02:50;4.85;;;1.17;;
34405;SDS011;20658;45.630;8.886;2023-03-26T02:05:41;4.57;;;1.08;;
34405;SDS011;20658;45.630;8.886;2023-03-26T02:10:56;4.10;;;1.52;;
34405;SDS011;20658;45.630;8.886;2023-03-26T02:13:36;4.45;;;0.95;;
34405;SDS011;20658;45.630;8.886;2023-03-26T02:16:11;5.13;;;1.63;;
34405;SDS011;20658;45.630;8.886;2023-03-26T02:18:47;4.65;;;1.10;;
34405;SDS011;20658;45.630;8.886;2023-03-26T02:21:26;2.38;;;0.85;;
34405;SDS011;20658;45.630;8.886;2023-03-26T02:24:04;3.97;;;0.90;;
34405;SDS011;20658;45.630;8.886;2023-03-26T02:26:35;2.10;;;0.73;;
34405;SDS011;20658;45.630;8.886;2023-03-26T02:29:10;5.18;;;1.17;;
34405;SDS011;20658;45.630;8.886;2023-03-26T02:31:42;5.10;;;1.13;;
34405;SDS011;20658;45.630;8.886;2023-03-26T02:34:11;2.97;;;0.80;;
34405;SDS011;20658;45.630;8.886;2023-03-26T02:36:46;5.40;;;2.00;;
34405;SDS011;20658;45.630;8.886;2023-03-26T02:39:14;5.05;;;1.63;;
34405;SDS011;20658;45.630;8.886;2023-03-26T02:41:57;3.40;;;1.48;;
34405;SDS011;20658;45.630;8.886;2023-03-26T02:44:38;5.25;;;1.40;;
34405;SDS011;20658;45.630;8.886;2023-03-26T02:47:33;5.90;;;1.17;;
34405;SDS011;20658;45.630;8.886;2023-03-26T02:50:35;3.40;;;1.20;;
34405;SDS011;20658;45.630;8.886;2023-03-26T02:53:26;3.17;;;0.93;;
34405;SDS011;20658;45.630;8.886;2023-03-26T02:59:12;3.45;;;0.85;;
34405;SDS011;20658;45.630;8.886;2023-03-26T03:01:55;3.78;;;1.38;;
34405;SDS011;20658;45.630;8.886;2023-03-26T03:04:24;2.30;;;0.90;;
34405;SDS011;20658;45.630;8.886;2023-03-26T03:06:52;3.10;;;1.15;;
34405;SDS011;20658;45.630;8.886;2023-03-26T03:09:23;4.93;;;0.80;;
34405;SDS011;20658;45.630;8.886;2023-03-26T03:12:11;3.17;;;0.90;;
34405;SDS011;20658;45.630;8.886;2023-03-26T03:14:44;4.43;;;1.42;;
34405;SDS011;20658;45.630;8.886;2023-03-26T03:17:14;4.57;;;1.10;;
34405;SDS011;20658;45.630;8.886;2023-03-26T03:19:47;2.92;;;1.33;;
34405;SDS011;20658;45.630;8.886;2023-03-26T03:22:21;8.68;;;2.35;;
34405;SDS011;20658;45.630;8.886;2023-03-26T03:24:54;5.45;;;2.72;;
34405;SDS011;20658;45.630;8.886;2023-03-26T03:27:30;4.78;;;2.60;;
34405;SDS011;20658;45.630;8.886;2023-03-26T03:30:07;10.75;;;4.18;;
34405;SDS011;20658;45.630;8.886;2023-03-26T03:32:45;7.03;;;3.13;;
34405;SDS011;20658;45.630;8.886;2023-03-26T03:35:21;12.85;;;4.53;;
34405;SDS011;20658;45.630;8.886;2023-03-26T03:37:57;13.43;;;4.85;;
34405;SDS011;20658;45.630;8.886;2023-03-26T03:40:41;10.70;;;5.55;;
34405;SDS011;20658;45.630;8.886;2023-03-26T03:43:15;14.20;;;6.15;;
34405;SDS011;20658;45.630;8.886;2023-03-26T03:46:07;11.85;;;6.38;;
34405;SDS011;20658;45.630;8.886;2023-03-26T03:48:49;19.27;;;7.65;;
34405;SDS011;20658;45.630;8.886;2023-03-26T03:51:30;15.68;;;7.10;;
34405;SDS011;20658;45.630;8.886;2023-03-26T03:54:12;18.23;;;7.90;;
34405;SDS011;20658;45.630;8.886;2023-03-26T03:56:45;14.65;;;7.32;;
34405;SDS011;20658;45.630;8.886;2023-03-26T03:59:32;16.52;;;8.50;;
34405;SDS011;20658;45.630;8.886;2023-03-26T04:02:09;17.10;;;8.82;;
34405;SDS011;20658;45.630;8.886;2023-03-26T04:04:51;17.08;;;9.27;;
34405;SDS011;20658;45.630;8.886;2023-03-26T04:07:20;19.00;;;9.40;;
34405;SDS011;20658;45.630;8.886;2023-03-26T04:10:14;19.80;;;9.80;;
34405;SDS011;20658;45.630;8.886;2023-03-26T04:13:07;16.92;;;8.55;;
34405;SDS011;20658;45.630;8.886;2023-03-26T04:16:10;20.50;;;10.32;;
34405;SDS011;20658;45.630;8.886;2023-03-26T04:18:44;18.65;;;9.88;;
34405;SDS011;20658;45.630;8.886;2023-03-26T04:21:18;22.17;;;10.50;;
34405;SDS011;20658;45.630;8.886;2023-03-26T04:23:52;17.70;;;10.90;;
34405;SDS011;20658;45.630;8.886;2023-03-26T04:26:57;18.40;;;10.02;;
34405;SDS011;20658;45.630;8.886;2023-03-26T04:29:37;25.65;;;11.88;;
34405;SDS011;20658;45.630;8.886;2023-03-26T04:32:19;21.75;;;11.98;;
34405;SDS011;20658;45.630;8.886;2023-03-26T04:34:56;21.02;;;11.77;;
34405;SDS011;20658;45.630;8.886;2023-03-26T04:37:33;23.90;;;13.25;;
34405;SDS011;20658;45.630;8.886;2023-03-26T04:40:18;23.83;;;12.45;;
34405;SDS011;20658;45.630;8.886;2023-03-26T04:43:14;26.88;;;14.57;;
34405;SDS011;20658;45.630;8.886;2023-03-26T04:46:03;25.45;;;15.95;;
34405;SDS011;20658;45.630;8.886;2023-03-26T04:48:38;23.33;;;14.65;;
34405;SDS011;20658;45.630;8.886;2023-03-26T04:51:12;25.10;;;15.00;;
34405;SDS011;20658;45.630;8.886;2023-03-26T04:53:50;28.63;;;15.98;;
34405;SDS011;20658;45.630;8.886;2023-03-26T04:56:28;28.15;;;16.63;;
34405;SDS011;20658;45.630;8.886;2023-03-26T04:59:24;27.15;;;17.73;;
34405;SDS011;20658;45.630;8.886;2023-03-26T05:02:03;28.70;;;18.20;;
34405;SDS011;20658;45.630;8.886;2023-03-26T05:04:44;26.40;;;18.67;;
34405;SDS011;20658;45.630;8.886;2023-03-26T05:07:20;29.77;;;17.67;;
34405;SDS011;20658;45.630;8.886;2023-03-26T05:09:54;26.65;;;18.83;;
34405;SDS011;20658;45.630;8.886;2023-03-26T05:12:50;29.08;;;18.70;;
34405;SDS011;20658;45.630;8.886;2023-03-26T05:15:28;32.13;;;18.85;;
34405;SDS011;20658;45.630;8.886;2023-03-26T05:18:22;28.88;;;19.95;;
34405;SDS011;20658;45.630;8.886;2023-03-26T05:20:55;30.70;;;20.73;;
34405;SDS011;20658;45.630;8.886;2023-03-26T05:23:30;29.63;;;19.77;;
34405;SDS011;20658;45.630;8.886;2023-03-26T05:26:17;32.22;;;20.00;;
34405;SDS011;20658;45.630;8.886;2023-03-26T05:28:51;34.90;;;20.63;;
34405;SDS011;20658;45.630;8.886;2023-03-26T05:31:23;30.23;;;20.75;;
34405;SDS011;20658;45.630;8.886;2023-03-26T05:33:59;33.35;;;21.20;;
34405;SDS011;20658;45.630;8.886;2023-03-26T05:36:33;29.48;;;19.08;;
34405;SDS011;20658;45.630;8.886;2023-03-26T05:39:35;29.73;;;19.67;;
34405;SDS011;20658;45.630;8.886;2023-03-26T05:42:12;29.58;;;19.92;;
34405;SDS011;20658;45.630;8.886;2023-03-26T05:45:05;32.58;;;19.73;;
34405;SDS011;20658;45.630;8.886;2023-03-26T05:47:41;29.23;;;19.25;;
34405;SDS011;20658;45.630;8.886;2023-03-26T05:50:14;29.70;;;18.92;;
34405;SDS011;20658;45.630;8.886;2023-03-26T05:52:48;28.13;;;18.45;;
34405;SDS011;20658;45.630;8.886;2023-03-26T05:55:52;28.02;;;18.35;;
34405;SDS011;20658;45.630;8.886;2023-03-26T05:58:47;29.63;;;18.15;;
34405;SDS011;20658;45.630;8.886;2023-03-26T06:01:40;25.95;;;18.50;;
34405;SDS011;20658;45.630;8.886;2023-03-26T06:04:15;29.15;;;19.48;;
34405;SDS011;20658;45.630;8.886;2023-03-26T06:07:01;29.73;;;18.52;;
34405;SDS011;20658;45.630;8.886;2023-03-26T06:09:35;26.80;;;18.27;;
34405;SDS011;20658;45.630;8.886;2023-03-26T06:12:04;31.38;;;19.48;;
34405;SDS011;20658;45.630;8.886;2023-03-26T06:14:40;27.90;;;19.10;;
34405;SDS011;20658;45.630;8.886;2023-03-26T06:17:21;28.80;;;17.88;;
34405;SDS011;20658;45.630;8.886;2023-03-26T06:20:09;33.00;;;18.85;;
34405;SDS011;20658;45.630;8.886;2023-03-26T06:22:46;30.65;;;19.50;;
34405;SDS011;20658;45.630;8.886;2023-03-26T06:25:37;26.60;;;17.23;;
34405;SDS011;20658;45.630;8.886;2023-03-26T06:28:24;30.77;;;18.88;;
34405;SDS011;20658;45.630;8.886;2023-03-26T06:31:24;26.35;;;16.75;;
34405;SDS011;20658;45.630;8.886;2023-03-26T06:34:11;26.88;;;17.05;;
34405;SDS011;20658;45.630;8.886;2023-03-26T06:36:39;27.58;;;17.77;;
34405;SDS011;20658;45.630;8.886;2023-03-26T06:39:13;24.17;;;15.68;;
34405;SDS011;20658;45.630;8.886;2023-03-26T06:42:02;25.23;;;15.65;;
34405;SDS011;20658;45.630;8.886;2023-03-26T06:44:43;24.00;;;15.80;;
34405;SDS011;20658;45.630;8.886;2023-03-26T06:47:19;27.98;;;15.63;;
34405;SDS011;20658;45.630;8.886;2023-03-26T06:49:53;25.58;;;15.20;;
34405;SDS011;20658;45.630;8.886;2023-03-26T06:52:54;24.27;;;14.55;;
34405;SDS011;20658;45.630;8.886;2023-03-26T06:55:40;23.05;;;14.65;;
34405;SDS011;20658;45.630;8.886;2023-03-26T06:58:32;20.75;;;13.20;;
34405;SDS011;20658;45.630;8.886;2023-03-26T07:01:24;23.05;;;14.75;;
34405;SDS011;20658;45.630;8.886;2023-03-26T07:04:12;22.55;;;13.43;;
34405;SDS011;20658;45.630;8.886;2023-03-26T07:06:59;26.30;;;13.75;;
34405;SDS011;20658;45.630;8.886;2023-03-26T07:09:51;23.50;;;14.57;;
34405;SDS011;20658;45.630;8.886;2023-03-26T07:15:30;22.60;;;14.10;;
34405;SDS011;20658;45.630;8.886;2023-03-26T07:18:25;24.08;;;13.82;;
34405;SDS011;20658;45.630;8.886;2023-03-26T07:21:01;25.00;;;14.32;;
34405;SDS011;20658;45.630;8.886;2023-03-26T07:23:36;24.67;;;14.18;;
34405;SDS011;20658;45.630;8.886;2023-03-26T07:26:40;22.10;;;14.00;;
34405;SDS011;20658;45.630;8.886;2023-03-26T07:29:23;29.10;;;13.88;;
34405;SDS011;20658;45.630;8.886;2023-03-26T07:32:27;25.38;;;14.13;;
34405;SDS011;20658;45.630;8.886;2023-03-26T07:35:45;22.63;;;13.18;;
34405;SDS011;20658;45.630;8.886;2023-03-26T07:38:44;20.48;;;12.25;;
34405;SDS011;20658;45.630;8.886;2023-03-26T07:41:57;24.75;;;12.35;;
34405;SDS011;20658;45.630;8.886;2023-03-26T07:44:50;21.10;;;13.10;;
34405;SDS011;20658;45.630;8.886;2023-03-26T07:47:39;21.98;;;13.23;;
34405;SDS011;20658;45.630;8.886;2023-03-26T07:53:06;20.95;;;11.82;;
34405;SDS011;20658;45.630;8.886;2023-03-26T07:55:56;18.63;;;12.40;;
34405;SDS011;20658;45.630;8.886;2023-03-26T08:02:25;20.92;;;12.07;;
34405;SDS011;20658;45.630;8.886;2023-03-26T08:05:29;17.83;;;10.63;;
34405;SDS011;20658;45.630;8.886;2023-03-26T08:08:17;21.75;;;11.05;;
34405;SDS011;20658;45.630;8.886;2023-03-26T08:11:16;18.77;;;10.93;;
34405;SDS011;20658;45.630;8.886;2023-03-26T08:14:01;23.73;;;10.93;;
34405;SDS011;20658;45.630;8.886;2023-03-26T08:16:41;19.98;;;10.55;;
34405;SDS011;20658;45.630;8.886;2023-03-26T08:19:22;18.88;;;9.85;;
34405;SDS011;20658;45.630;8.886;2023-03-26T08:22:09;22.42;;;12.07;;
34405;SDS011;20658;45.630;8.886;2023-03-26T08:24:55;19.58;;;10.63;;
34405;SDS011;20658;45.630;8.886;2023-03-26T08:27:50;20.40;;;10.48;;
34405;SDS011;20658;45.630;8.886;2023-03-26T08:30:30;19.23;;;9.68;;
34405;SDS011;20658;45.630;8.886;2023-03-26T08:33:00;20.38;;;9.75;;
34405;SDS011;20658;45.630;8.886;2023-03-26T08:35:44;19.58;;;9.40;;
34405;SDS011;20658;45.630;8.886;2023-03-26T08:38:18;20.73;;;10.50;;
34405;SDS011;20658;45.630;8.886;2023-03-26T08:44:36;15.15;;;8.52;;
34405;SDS011;20658;45.630;8.886;2023-03-26T08:47:50;16.73;;;8.93;;
34405;SDS011;20658;45.630;8.886;2023-03-26T08:54:19;18.17;;;9.88;;
34405;SDS011;20658;45.630;8.886;2023-03-26T08:57:35;21.73;;;9.10;;
34405;SDS011;20658;45.630;8.886;2023-03-26T09:04:22;18.75;;;9.05;;
34405;SDS011;20658;45.630;8.886;2023-03-26T09:14:05;17.10;;;7.97;;
34405;SDS011;20658;45.630;8.886;2023-03-26T09:20:39;18.23;;;8.00;;
34405;SDS011;20658;45.630;8.886;2023-03-26T09:23:31;24.20;;;11.13;;
34405;SDS011;20658;45.630;8.886;2023-03-26T09:26:43;19.58;;;9.32;;
34405;SDS011;20658;45.630;8.886;2023-03-26T09:35:59;16.98;;;9.15;;
34405;SDS011;20658;45.630;8.886;2023-03-26T09:38:55;26.23;;;11.13;;
34405;SDS011;20658;45.630;8.886;2023-03-26T09:41:37;33.03;;;18.30;;
34405;SDS011;20658;45.630;8.886;2023-03-26T09:50:37;18.00;;;6.75;;
34405;SDS011;20658;45.630;8.886;2023-03-26T09:53:26;17.08;;;6.72;;
34405;SDS011;20658;45.630;8.886;2023-03-26T09:56:24;16.98;;;8.45;;
34405;SDS011;20658;45.630;8.886;2023-03-26T09:59:12;19.15;;;9.20;;
34405;SDS011;20658;45.630;8.886;2023-03-26T10:02:06;19.05;;;9.65;;
34405;SDS011;20658;45.630;8.886;2023-03-26T10:07:59;15.30;;;6.32;;
34405;SDS011;20658;45.630;8.886;2023-03-26T10:10:46;16.50;;;5.95;;
34405;SDS011;20658;45.630;8.886;2023-03-26T10:13:27;17.77;;;6.10;;
34405;SDS011;20658;45.630;8.886;2023-03-26T10:16:10;16.00;;;6.25;;
34405;SDS011;20658;45.630;8.886;2023-03-26T10:18:58;16.48;;;6.38;;
34405;SDS011;20658;45.630;8.886;2023-03-26T10:21:50;19.40;;;7.28;;
34405;SDS011;20658;45.630;8.886;2023-03-26T10:24:42;24.65;;;10.10;;
34405;SDS011;20658;45.630;8.886;2023-03-26T10:27:48;17.08;;;7.18;;
34405;SDS011;20658;45.630;8.886;2023-03-26T10:30:32;20.48;;;6.93;;
34405;SDS011;20658;45.630;8.886;2023-03-26T10:33:26;20.83;;;9.15;;
34405;SDS011;20658;45.630;8.886;2023-03-26T10:36:13;18.38;;;7.53;;
34405;SDS011;20658;45.630;8.886;2023-03-26T10:39:13;28.85;;;16.48;;
34405;SDS011;20658;45.630;8.886;2023-03-26T10:42:07;14.38;;;8.15;;
34405;SDS011;20658;45.630;8.886;2023-03-26T10:44:59;18.48;;;8.00;;
34405;SDS011;20658;45.630;8.886;2023-03-26T10:47:54;22.73;;;8.48;;
34405;SDS011;20658;45.630;8.886;2023-03-26T10:50:53;18.17;;;8.32;;
34405;SDS011;20658;45.630;8.886;2023-03-26T10:53:46;19.10;;;8.20;;
34405;SDS011;20658;45.630;8.886;2023-03-26T10:56:24;15.93;;;7.15;;
34405;SDS011;20658;45.630;8.886;2023-03-26T10:58:57;20.83;;;8.60;;
34405;SDS011;20658;45.630;8.886;2023-03-26T11:04:17;32.88;;;11.68;;
34405;SDS011;20658;45.630;8.886;2023-03-26T11:07:03;19.98;;;10.88;;
34405;SDS011;20658;45.630;8.886;2023-03-26T11:09:46;16.35;;;7.45;;
34405;SDS011;20658;45.630;8.886;2023-03-26T11:12:25;16.42;;;7.60;;
34405;SDS011;20658;45.630;8.886;2023-03-26T11:15:12;19.20;;;8.10;;
34405;SDS011;20658;45.630;8.886;2023-03-26T11:17:57;18.08;;;7.82;;
34405;SDS011;20658;45.630;8.886;2023-03-26T11:20:38;16.77;;;8.23;;
34405;SDS011;20658;45.630;8.886;2023-03-26T11:23:28;13.03;;;7.77;;
34405;SDS011;20658;45.630;8.886;2023-03-26T11:26:11;16.90;;;8.07;;
34405;SDS011;20658;45.630;8.886;2023-03-26T11:31:54;16.75;;;8.18;;
34405;SDS011;20658;45.630;8.886;2023-03-26T11:34:32;27.65;;;7.00;;
34405;SDS011;20658;45.630;8.886;2023-03-26T11:37:13;17.92;;;7.65;;
34405;SDS011;20658;45.630;8.886;2023-03-26T11:39:50;17.63;;;7.57;;
34405;SDS011;20658;45.630;8.886;2023-03-26T11:42:28;17.55;;;7.22;;
34405;SDS011;20658;45.630;8.886;2023-03-26T11:45:02;15.35;;;7.43;;
34405;SDS011;20658;45.630;8.886;2023-03-26T11:47:41;21.38;;;9.52;;
34405;SDS011;20658;45.630;8.886;2023-03-26T11:50:20;15.75;;;7.43;;
34405;SDS011;20658;45.630;8.886;2023-03-26T11:52:58;14.93;;;7.45;;
34405;SDS011;20658;45.630;8.886;2023-03-26T11:55:43;15.18;;;7.18;;
34405;SDS011;20658;45.630;8.886;2023-03-26T11:58:24;14.68;;;6.53;;
34405;SDS011;20658;45.630;8.886;2023-03-26T12:01:04;21.33;;;6.97;;
34405;SDS011;20658;45.630;8.886;2023-03-26T12:03:55;16.73;;;7.43;;
34405;SDS011;20658;45.630;8.886;2023-03-26T12:06:34;17.90;;;7.15;;
34405;SDS011;20658;45.630;8.886;2023-03-26T12:09:14;21.00;;;6.10;;
34405;SDS011;20658;45.630;8.886;2023-03-26T12:11:48;14.53;;;5.47;;
34405;SDS011;20658;45.630;8.886;2023-03-26T12:14:28;20.77;;;6.07;;
34405;SDS011;20658;45.630;8.886;2023-03-26T12:17:01;18.98;;;6.00;;
34405;SDS011;20658;45.630;8.886;2023-03-26T12:19:40;21.00;;;8.65;;
34405;SDS011;20658;45.630;8.886;2023-03-26T12:22:28;16.33;;;6.00;;
34405;SDS011;20658;45.630;8.886;2023-03-26T12:25:13;20.93;;;8.20;;
34405;SDS011;20658;45.630;8.886;2023-03-26T12:27:50;20.25;;;6.72;;
34405;SDS011;20658;45.630;8.886;2023-03-26T12:30:33;26.90;;;8.52;;
34405;SDS011;20658;45.630;8.886;2023-03-26T12:33:12;24.88;;;11.18;;
34405;SDS011;20658;45.630;8.886;2023-03-26T12:35:53;20.50;;;7.75;;
34405;SDS011;20658;45.630;8.886;2023-03-26T12:38:31;31.05;;;12.27;;
34405;SDS011;20658;45.630;8.886;2023-03-26T12:41:06;21.58;;;7.35;;
34405;SDS011;20658;45.630;8.886;2023-03-26T12:43:42;29.05;;;9.60;;
34405;SDS011;20658;45.630;8.886;2023-03-26T12:46:24;26.48;;;8.38;;
34405;SDS011;20658;45.630;8.886;2023-03-26T12:49:02;33.95;;;15.00;;
34405;SDS011;20658;45.630;8.886;2023-03-26T12:51:42;33.80;;;13.90;;
34405;SDS011;20658;45.630;8.886;2023-03-26T12:54:26;24.23;;;9.20;;
34405;SDS011;20658;45.630;8.886;2023-03-26T12:57:17;25.67;;;8.40;;
34405;SDS011;20658;45.630;8.886;2023-03-26T12:59:57;52.70;;;36.65;;
34405;SDS011;20658;45.630;8.886;2023-03-26T13:05:48;14.13;;;5.50;;
34405;SDS011;20658;45.630;8.886;2023-03-26T13:08:42;13.50;;;4.67;;
34405;SDS011;20658;45.630;8.886;2023-03-26T13:11:49;12.80;;;5.07;;
34405;SDS011;20658;45.630;8.886;2023-03-26T13:14:52;17.13;;;6.03;;
34405;SDS011;20658;45.630;8.886;2023-03-26T13:17:38;9.52;;;4.22;;
34405;SDS011;20658;45.630;8.886;2023-03-26T13:20:50;17.92;;;6.32;;
34405;SDS011;20658;45.630;8.886;2023-03-26T13:23:35;25.58;;;11.90;;
34405;SDS011;20658;45.630;8.886;2023-03-26T13:26:30;19.48;;;8.23;;
34405;SDS011;20658;45.630;8.886;2023-03-26T13:29:21;18.42;;;6.32;;
34405;SDS011;20658;45.630;8.886;2023-03-26T13:32:04;27.48;;;12.68;;
34405;SDS011;20658;45.630;8.886;2023-03-26T13:34:54;22.85;;;10.18;;
34405;SDS011;20658;45.630;8.886;2023-03-26T13:37:41;16.63;;;7.15;;
34405;SDS011;20658;45.630;8.886;2023-03-26T13:40:24;20.48;;;8.48;;
34405;SDS011;20658;45.630;8.886;2023-03-26T13:43:09;17.90;;;6.90;;
34405;SDS011;20658;45.630;8.886;2023-03-26T13:45:58;15.68;;;4.80;;
34405;SDS011;20658;45.630;8.886;2023-03-26T13:48:35;11.00;;;4.00;;
34405;SDS011;20658;45.630;8.886;2023-03-26T13:51:15;11.60;;;4.35;;
34405;SDS011;20658;45.630;8.886;2023-03-26T13:53:54;15.32;;;4.75;;
34405;SDS011;20658;45.630;8.886;2023-03-26T13:56:35;11.82;;;4.28;;
34405;SDS011;20658;45.630;8.886;2023-03-26T13:59:19;15.82;;;4.47;;
34405;SDS011;20658;45.630;8.886;2023-03-26T14:02:00;12.18;;;4.28;;
34405;SDS011;20658;45.630;8.886;2023-03-26T14:04:42;11.30;;;4.00;;
34405;SDS011;20658;45.630;8.886;2023-03-26T14:07:19;11.20;;;3.97;;
34405;SDS011;20658;45.630;8.886;2023-03-26T14:09:59;15.02;;;4.45;;
34405;SDS011;20658;45.630;8.886;2023-03-26T14:12:36;8.98;;;3.35;;
34405;SDS011;20658;45.630;8.886;2023-03-26T14:15:21;9.27;;;3.75;;
34405;SDS011;20658;45.630;8.886;2023-03-26T14:18:00;7.72;;;2.92;;
34405;SDS011;20658;45.630;8.886;2023-03-26T14:27:29;7.75;;;2.80;;
34405;SDS011;20658;45.630;8.886;2023-03-26T14:33:52;10.35;;;2.72;;
34405;SDS011;20658;45.630;8.886;2023-03-26T14:36:59;14.52;;;4.00;;
34405;SDS011;20658;45.630;8.886;2023-03-26T14:39:57;12.82;;;4.50;;
34405;SDS011;20658;45.630;8.886;2023-03-26T14:42:42;12.70;;;4.20;;
34405;SDS011;20658;45.630;8.886;2023-03-26T14:51:35;8.60;;;3.47;;
34405;SDS011;20658;45.630;8.886;2023-03-26T14:54:21;11.00;;;3.30;;
34405;SDS011;20658;45.630;8.886;2023-03-26T15:00:09;10.63;;;4.15;;
34405;SDS011;20658;45.630;8.886;2023-03-26T15:07:07;13.52;;;5.43;;
34405;SDS011;20658;45.630;8.886;2023-03-26T15:20:20;13.23;;;5.10;;
34405;SDS011;20658;45.630;8.886;2023-03-26T15:23:45;11.75;;;5.40;;
34405;SDS011;20658;45.630;8.886;2023-03-26T15:30:25;14.82;;;10.73;;
34405;SDS011;20658;45.630;8.886;2023-03-26T15:34:09;11.45;;;5.25;;
34405;SDS011;20658;45.630;8.886;2023-03-26T15:37:36;8.77;;;4.30;;
34405;SDS011;20658;45.630;8.886;2023-03-26T15:40:46;10.63;;;4.75;;
34405;SDS011;20658;45.630;8.886;2023-03-26T15:46:57;14.05;;;3.67;;
34405;SDS011;20658;45.630;8.886;2023-03-26T15:49:54;11.35;;;5.15;;
34405;SDS011;20658;45.630;8.886;2023-03-26T15:52:43;8.70;;;4.20;;
34405;SDS011;20658;45.630;8.886;2023-03-26T15:55:26;7.65;;;4.00;;
34405;SDS011;20658;45.630;8.886;2023-03-26T15:58:08;10.52;;;5.45;;
34405;SDS011;20658;45.630;8.886;2023-03-26T16:00:51;17.23;;;8.50;;
34405;SDS011;20658;45.630;8.886;2023-03-26T16:03:34;17.05;;;7.63;;
34405;SDS011;20658;45.630;8.886;2023-03-26T16:06:22;10.73;;;5.60;;
34405;SDS011;20658;45.630;8.886;2023-03-26T16:09:03;11.23;;;6.05;;
34405;SDS011;20658;45.630;8.886;2023-03-26T16:11:52;15.25;;;6.00;;
34405;SDS011;20658;45.630;8.886;2023-03-26T16:14:38;13.73;;;5.88;;
34405;SDS011;20658;45.630;8.886;2023-03-26T16:19:46;11.88;;;5.10;;
34405;SDS011;20658;45.630;8.886;2023-03-26T16:22:36;6.97;;;3.85;;
34405;SDS011;20658;45.630;8.886;2023-03-26T16:25:28;9.07;;;4.13;;
34405;SDS011;20658;45.630;8.886;2023-03-26T16:28:17;13.82;;;5.07;;
34405;SDS011;20658;45.630;8.886;2023-03-26T16:31:03;11.07;;;5.50;;
34405;SDS011;20658;45.630;8.886;2023-03-26T16:34:19;10.68;;;5.15;;
34405;SDS011;20658;45.630;8.886;2023-03-26T16:36:58;8.15;;;3.65;;
34405;SDS011;20658;45.630;8.886;2023-03-26T16:39:40;10.02;;;4.38;;
34405;SDS011;20658;45.630;8.886;2023-03-26T16:42:32;8.63;;;3.75;;
34405;SDS011;20658;45.630;8.886;2023-03-26T16:45:12;9.55;;;4.18;;
34405;SDS011;20658;45.630;8.886;2023-03-26T16:47:54;13.00;;;3.95;;
34405;SDS011;20658;45.630;8.886;2023-03-26T16:50:40;8.52;;;3.65;;
34405;SDS011;20658;45.630;8.886;2023-03-26T16:53:22;11.82;;;4.72;;
34405;SDS011;20658;45.630;8.886;2023-03-26T16:56:06;7.55;;;4.30;;
34405;SDS011;20658;45.630;8.886;2023-03-26T16:58:52;10.57;;;4.50;;
34405;SDS011;20658;45.630;8.886;2023-03-26T17:01:37;9.97;;;4.67;;
34405;SDS011;20658;45.630;8.886;2023-03-26T17:04:14;9.65;;;4.63;;
34405;SDS011;20658;45.630;8.886;2023-03-26T17:06:59;13.23;;;6.90;;
34405;SDS011;20658;45.630;8.886;2023-03-26T17:09:49;14.45;;;6.95;;
34405;SDS011;20658;45.630;8.886;2023-03-26T17:12:30;13.23;;;5.63;;
34405;SDS011;20658;45.630;8.886;2023-03-26T17:15:15;12.27;;;4.95;;
34405;SDS011;20658;45.630;8.886;2023-03-26T17:18:02;11.70;;;4.72;;
34405;SDS011;20658;45.630;8.886;2023-03-26T17:21:01;12.52;;;6.55;;
34405;SDS011;20658;45.630;8.886;2023-03-26T17:23:46;8.93;;;4.87;;
34405;SDS011;20658;45.630;8.886;2023-03-26T17:26:38;10.02;;;4.90;;
34405;SDS011;20658;45.630;8.886;2023-03-26T17:29:26;14.13;;;6.10;;
34405;SDS011;20658;45.630;8.886;2023-03-26T17:32:11;13.73;;;5.50;;
34405;SDS011;20658;45.630;8.886;2023-03-26T17:34:42;11.82;;;6.30;;
34405;SDS011;20658;45.630;8.886;2023-03-26T17:40:27;12.07;;;5.38;;
34405;SDS011;20658;45.630;8.886;2023-03-26T17:43:36;10.40;;;4.97;;
34405;SDS011;20658;45.630;8.886;2023-03-26T17:49:06;11.88;;;4.95;;
34405;SDS011;20658;45.630;8.886;2023-03-26T17:51:46;15.25;;;6.90;;
34405;SDS011;20658;45.630;8.886;2023-03-26T17:54:19;13.93;;;5.57;;
34405;SDS011;20658;45.630;8.886;2023-03-26T17:56:58;10.73;;;4.65;;
34405;SDS011;20658;45.630;8.886;2023-03-26T17:59:30;13.32;;;5.40;;
34405;SDS011;20658;45.630;8.886;2023-03-26T18:02:06;10.90;;;5.10;;
34405;SDS011;20658;45.630;8.886;2023-03-26T18:04:48;14.40;;;5.82;;